Rankin, Michigan
Current Conditions -  °F | °C
As of 10:06 PM on Monday 20 Oct 2014 (Local Time) from KFNT Reporting Station
Overcast Overcast  
Wind Chill: 11°   Ceiling: 4900
Heat Index: 11°   Visibility: 10mi
Dew Point:   Wind: 9mph
Humidity: 83%   Direction: 330°NNW
Pressure: 29.89"   Gusts: NA
Location:  42.9382°N, 83.8244°W
Report Text: KFNT 210206Z 33008KT 10SM SCT022 OVC049 11/08 A2989 RMK AO2 T01060078
Loading
Personal Weather Stations






























Interactive Weather Map
Tropical Storm Tracking
New forecast layout! Learn more

10-Day Weather Forecast

Advertisements
Track Severe Weather on mobile